createdAt,value
2019-04-25T00:02:06.380Z,10.00
2019-04-25T00:05:03.263Z,13.60
2019-04-25T00:07:59.417Z,11.97
2019-04-25T00:10:55.763Z,13.07
2019-04-25T00:13:52.251Z,8.63
2019-04-25T00:16:49.141Z,10.37
2019-04-25T00:19:44.693Z,7.67
2019-04-25T00:22:47.376Z,13.03
2019-04-25T00:26:01.364Z,7.17
2019-04-25T00:28:57.057Z,11.43
2019-04-25T00:31:54.052Z,6.27
2019-04-25T00:34:51.778Z,8.67
2019-04-25T00:37:48.389Z,9.57
2019-04-25T00:40:44.705Z,5.67
2019-04-25T00:43:42.197Z,6.10
2019-04-25T00:46:38.595Z,2.50
2019-04-25T00:49:34.798Z,5.70
2019-04-25T00:52:31.441Z,3.97
2019-04-25T00:55:28.917Z,7.90
2019-04-25T00:58:43.083Z,3.43
2019-04-25T01:01:53.893Z,8.50
2019-04-25T01:04:52.102Z,6.90
2019-04-25T01:07:47.775Z,10.53
2019-04-25T01:10:44.411Z,6.20
2019-04-25T01:13:39.927Z,2.60
2019-04-25T01:16:35.466Z,9.30
2019-04-25T01:19:31.202Z,7.87
2019-04-25T01:22:27.430Z,4.97
2019-04-25T01:25:23.463Z,3.53
2019-04-25T01:28:18.661Z,5.67
2019-04-25T01:31:16.070Z,9.03
2019-04-25T01:34:14.246Z,10.30
2019-04-25T01:37:17.259Z,3.87
2019-04-25T01:40:41.408Z,2.43
2019-04-25T01:43:43.731Z,5.47
2019-04-25T01:46:41.860Z,6.23
2019-04-25T01:49:37.136Z,4.80
2019-04-25T01:52:33.421Z,8.70
2019-04-25T01:55:29.401Z,3.20
2019-04-25T01:58:25.390Z,3.13
2019-04-25T02:01:21.684Z,3.20
2019-04-25T02:04:17.182Z,4.20
2019-04-25T02:07:13.741Z,3.53
2019-04-25T02:10:09.282Z,3.10
2019-04-25T02:13:08.203Z,3.10
2019-04-25T02:16:05.331Z,3.00
2019-04-25T02:19:03.835Z,5.13
2019-04-25T02:21:59.836Z,5.17
2019-04-25T02:24:58.270Z,11.90
2019-04-25T02:27:55.724Z,6.00
2019-04-25T02:30:53.625Z,2.83
2019-04-25T02:33:49.480Z,4.70
2019-04-25T02:36:47.049Z,8.60
2019-04-25T02:39:41.888Z,2.80
2019-04-25T02:42:37.982Z,3.50
2019-04-25T02:45:55.454Z,5.33
2019-04-25T02:49:09.583Z,5.00
2019-04-25T02:52:15.675Z,5.50
2019-04-25T02:55:11.445Z,3.73
2019-04-25T02:58:10.059Z,5.13
2019-04-25T03:01:16.637Z,3.37
2019-04-25T03:04:08.578Z,3.00
2019-04-25T03:07:02.114Z,3.10
2019-04-25T03:09:58.589Z,3.87
2019-04-25T03:12:55.294Z,4.77
2019-04-25T03:15:52.789Z,2.60
2019-04-25T03:19:02.896Z,3.17
2019-04-25T03:22:01.537Z,6.67
2019-04-25T03:24:59.710Z,2.40
2019-04-25T03:27:55.302Z,3.63
2019-04-25T03:30:51.300Z,1.43
2019-04-25T03:33:48.099Z,2.17
2019-04-25T03:36:44.559Z,4.00
2019-04-25T03:39:40.947Z,2.07
2019-04-25T03:42:37.930Z,5.97
2019-04-25T03:45:37.323Z,4.93
2019-04-25T03:48:36.486Z,2.70
2019-04-25T03:51:30.735Z,2.37
2019-04-25T03:54:27.000Z,3.00
2019-04-25T03:57:23.298Z,4.00
2019-04-25T04:00:19.686Z,4.22
2019-04-25T04:03:15.337Z,3.07
2019-04-25T04:06:11.738Z,6.87
2019-04-25T04:09:08.103Z,3.87
2019-04-25T04:12:04.382Z,3.67
2019-04-25T04:15:04.693Z,1.70
2019-04-25T04:18:10.680Z,2.43
2019-04-25T04:21:24.687Z,3.13
2019-04-25T04:24:49.022Z,4.33
2019-04-25T04:27:44.770Z,3.47
2019-04-25T04:30:40.452Z,4.90
2019-04-25T04:33:36.631Z,4.43
2019-04-25T04:36:33.852Z,5.47
2019-04-25T04:39:30.246Z,5.10
2019-04-25T04:42:26.685Z,2.53
2019-04-25T04:45:23.260Z,3.60
2019-04-25T04:48:19.355Z,6.97
2019-04-25T04:51:16.875Z,1.87
2019-04-25T04:54:14.137Z,3.40
2019-04-25T04:57:22.126Z,1.73
2019-04-25T05:00:08.614Z,1.40
2019-04-25T05:03:16.916Z,2.53
2019-04-25T05:06:20.874Z,3.77
2019-04-25T05:09:25.287Z,3.37
2019-04-25T05:12:21.644Z,4.00
2019-04-25T05:15:18.209Z,2.07
2019-04-25T05:18:20.663Z,3.63
2019-04-25T05:21:12.782Z,2.23
2019-04-25T05:24:08.955Z,2.20
2019-04-25T05:27:07.133Z,3.47
2019-04-25T05:30:04.009Z,2.63
2019-04-25T05:32:59.684Z,2.90
2019-04-25T05:35:56.367Z,2.00
2019-04-25T05:38:52.008Z,3.07
2019-04-25T05:42:02.192Z,2.77
2019-04-25T05:44:59.580Z,2.87
2019-04-25T05:47:55.018Z,3.40
2019-04-25T05:50:51.122Z,4.10
2019-04-25T05:53:47.160Z,5.77
2019-04-25T05:56:43.794Z,3.50
2019-04-25T05:59:39.084Z,3.97
2019-04-25T06:02:35.529Z,3.33
2019-04-25T06:05:30.963Z,3.37
2019-04-25T06:08:28.101Z,3.03
2019-04-25T06:11:34.077Z,3.07
2019-04-25T06:14:30.309Z,1.93
2019-04-25T06:17:34.379Z,2.50
2019-04-25T06:20:35.442Z,3.03
2019-04-25T06:23:48.675Z,1.43
2019-04-25T06:27:03.867Z,4.83
2019-04-25T06:30:04.371Z,2.60
2019-04-25T06:33:00.776Z,3.03
2019-04-25T06:35:56.972Z,1.07
2019-04-25T06:38:54.305Z,2.20
2019-04-25T06:41:50.244Z,1.43
2019-04-25T06:45:03.897Z,2.20
2019-04-25T06:48:21.270Z,3.50
2019-04-25T06:51:18.414Z,2.03
2019-04-25T06:54:14.810Z,1.07
2019-04-25T06:57:10.771Z,0.30
2019-04-25T07:00:10.252Z,1.30
2019-04-25T07:03:05.455Z,1.40
2019-04-25T07:06:00.650Z,2.43
2019-04-25T07:08:56.674Z,1.17
2019-04-25T07:11:53.895Z,3.60
2019-04-25T07:14:49.043Z,1.70
2019-04-25T07:17:45.787Z,0.60
2019-04-25T07:20:43.202Z,0.33
2019-04-25T07:23:38.394Z,1.13
2019-04-25T07:26:53.862Z,4.10
2019-04-25T07:30:04.072Z,0.60
2019-04-25T07:33:08.358Z,2.50
2019-04-25T07:36:04.768Z,0.97
2019-04-25T07:39:08.164Z,0.67
2019-04-25T07:41:59.008Z,0.80
2019-04-25T07:44:55.192Z,1.67
2019-04-25T07:47:51.084Z,2.40
2019-04-25T07:50:47.294Z,0.90
2019-04-25T07:53:43.835Z,0.63
2019-04-25T07:56:40.273Z,1.27
2019-04-25T07:59:36.374Z,2.70
2019-04-25T08:02:33.823Z,1.53
2019-04-25T08:05:29.609Z,1.87
2019-04-25T08:08:25.953Z,2.77
2019-04-25T08:11:23.728Z,1.63
2019-04-25T08:14:43.735Z,2.03
2019-04-25T08:17:55.215Z,0.90
2019-04-25T08:20:51.244Z,1.57
2019-04-25T08:23:46.309Z,4.07
2019-04-25T08:26:43.684Z,1.50
2019-04-25T08:29:39.705Z,0.80
2019-04-25T08:32:36.519Z,0.87
2019-04-25T08:35:35.475Z,2.10
2019-04-25T08:38:31.503Z,3.53
2019-04-25T08:41:26.801Z,3.13
2019-04-25T08:44:23.981Z,4.27
2019-04-25T08:47:19.035Z,0.70
2019-04-25T08:50:29.101Z,1.17
2019-04-25T08:53:18.119Z,3.23
2019-04-25T08:56:18.809Z,0.40
2019-04-25T08:59:40.082Z,1.50
2019-04-25T09:02:38.809Z,1.37
2019-04-25T09:05:46.457Z,1.97
2019-04-25T09:08:44.023Z,2.03
2019-04-25T09:11:40.138Z,0.90
2019-04-25T09:14:36.814Z,4.30
2019-04-25T09:17:35.475Z,1.60
2019-04-25T09:20:29.909Z,1.87
2019-04-25T09:23:25.883Z,1.23
2019-04-25T09:26:21.541Z,0.70
2019-04-25T09:29:19.872Z,2.57
2019-04-25T09:32:15.144Z,1.73
2019-04-25T09:35:10.908Z,4.80
2019-04-25T09:38:06.452Z,2.27
2019-04-25T09:41:01.737Z,4.10
2019-04-25T09:44:01.762Z,1.83
2019-04-25T09:46:57.973Z,9.67
2019-04-25T09:49:54.678Z,1.80
2019-04-25T09:52:50.924Z,1.87
2019-04-25T09:55:55.891Z,1.87
2019-04-25T09:58:53.969Z,4.00
2019-04-25T10:01:51.134Z,2.43
2019-04-25T10:04:48.132Z,3.63
2019-04-25T10:07:46.204Z,1.57
2019-04-25T10:10:41.406Z,3.23
2019-04-25T10:13:40.307Z,3.53
2019-04-25T10:16:36.704Z,1.70
2019-04-25T10:19:31.856Z,2.00
2019-04-25T10:22:30.354Z,3.90
2019-04-25T10:25:25.530Z,1.33
2019-04-25T10:28:23.318Z,1.10
2019-04-25T10:31:23.868Z,1.07
2019-04-25T10:34:20.104Z,3.70
2019-04-25T10:37:17.717Z,4.33
2019-04-25T10:40:14.561Z,2.60
2019-04-25T10:43:09.752Z,3.43
2019-04-25T10:46:05.295Z,2.07
2019-04-25T10:49:04.037Z,2.20
2019-04-25T10:51:59.904Z,3.30
2019-04-25T10:54:56.159Z,1.40
2019-04-25T10:57:51.524Z,1.80
2019-04-25T11:00:49.298Z,2.17
2019-04-25T11:03:55.719Z,1.37
2019-04-25T11:06:52.252Z,1.80
2019-04-25T11:09:49.186Z,1.03
2019-04-25T11:12:47.908Z,2.87
2019-04-25T11:15:44.870Z,1.93
2019-04-25T11:18:44.172Z,0.60
2019-04-25T11:21:39.132Z,2.30
2019-04-25T11:24:35.192Z,1.73
2019-04-25T11:27:31.908Z,1.87
2019-04-25T11:30:29.516Z,0.83
2019-04-25T11:33:25.340Z,4.20
2019-04-25T11:36:20.907Z,2.80
2019-04-25T11:39:35.862Z,3.10
2019-04-25T11:42:31.010Z,2.27
2019-04-25T11:45:27.075Z,1.53
2019-04-25T11:48:23.852Z,1.03
2019-04-25T11:51:20.323Z,1.80
2019-04-25T11:54:16.537Z,1.47
2019-04-25T11:57:13.931Z,0.60
2019-04-25T12:00:21.519Z,2.73
2019-04-25T12:03:07.592Z,1.03
2019-04-25T12:06:03.006Z,1.87
2019-04-25T12:08:58.150Z,2.40
2019-04-25T12:11:54.650Z,3.77
2019-04-25T12:14:51.605Z,2.17
2019-04-25T12:17:48.139Z,0.97
2019-04-25T12:20:44.729Z,1.50
2019-04-25T12:23:45.999Z,2.20
2019-04-25T12:26:40.110Z,1.00
2019-04-25T12:29:38.741Z,1.00
2019-04-25T12:32:35.240Z,0.97
2019-04-25T12:35:33.216Z,3.23
2019-04-25T12:38:29.147Z,1.17
2019-04-25T12:41:25.669Z,0.70
2019-04-25T12:44:36.664Z,0.57
2019-04-25T12:47:34.394Z,0.80
2019-04-25T12:50:30.290Z,3.20
2019-04-25T12:53:25.956Z,0.90
2019-04-25T12:56:21.193Z,1.13
2019-04-25T12:59:16.580Z,2.63
2019-04-25T13:02:13.346Z,0.97
2019-04-25T13:05:09.413Z,1.30
2019-04-25T13:08:07.381Z,1.50
2019-04-25T13:11:08.648Z,4.00
2019-04-25T13:14:00.573Z,12.67
2019-04-25T13:16:56.872Z,2.60
2019-04-25T13:19:54.267Z,3.20
2019-04-25T13:22:50.257Z,1.03
2019-04-25T13:25:48.976Z,1.47
2019-04-25T13:28:59.031Z,2.17
2019-04-25T13:32:11.813Z,1.70
2019-04-25T13:35:14.699Z,1.90
2019-04-25T13:38:11.063Z,2.77
2019-04-25T13:41:07.279Z,3.23
2019-04-25T13:44:03.553Z,2.20
2019-04-25T13:46:59.721Z,4.03
2019-04-25T13:49:55.672Z,1.60
2019-04-25T13:52:53.264Z,1.40
2019-04-25T13:55:49.428Z,3.23
2019-04-25T13:58:44.730Z,1.90
2019-04-25T14:01:40.708Z,2.37
2019-04-25T14:04:36.785Z,1.63
2019-04-25T14:07:33.048Z,2.90
2019-04-25T14:10:28.544Z,2.20
2019-04-25T14:13:25.596Z,1.17
2019-04-25T14:16:38.836Z,6.17
2019-04-25T14:19:54.251Z,1.50
2019-04-25T14:22:50.846Z,10.13
2019-04-25T14:25:48.116Z,4.30
2019-04-25T14:28:44.322Z,1.00
2019-04-25T14:31:45.634Z,1.50
2019-04-25T14:34:38.439Z,1.57
2019-04-25T14:37:39.459Z,7.43
2019-04-25T14:40:33.125Z,2.50
2019-04-25T14:43:29.164Z,2.73
2019-04-25T14:46:26.405Z,3.27
2019-04-25T14:49:22.849Z,2.03
2019-04-25T14:52:19.184Z,1.60
2019-04-25T14:55:40.638Z,1.90
2019-04-25T14:58:38.335Z,4.27
2019-04-25T15:01:44.548Z,2.80
2019-04-25T15:04:30.957Z,3.40
2019-04-25T15:07:27.484Z,4.20
2019-04-25T15:10:24.384Z,2.63
2019-04-25T15:13:19.766Z,1.57
2019-04-25T15:16:15.109Z,3.70
2019-04-25T15:19:11.307Z,6.03
2019-04-25T15:22:07.687Z,6.70
2019-04-25T15:25:06.269Z,3.93
2019-04-25T15:28:03.366Z,5.17
2019-04-25T15:31:00.921Z,2.87
2019-04-25T15:33:57.130Z,2.10
2019-04-25T15:36:58.725Z,4.73
2019-04-25T15:39:58.954Z,2.87
2019-04-25T15:43:06.697Z,3.77
2019-04-25T15:46:09.928Z,3.53
2019-04-25T15:49:06.347Z,7.07
2019-04-25T15:52:07.060Z,2.17
2019-04-25T15:55:07.479Z,4.07
2019-04-25T15:58:04.733Z,3.50
2019-04-25T16:01:00.213Z,7.17
2019-04-25T16:03:56.667Z,5.43
2019-04-25T16:06:51.937Z,12.23
2019-04-25T16:09:48.611Z,8.60
2019-04-25T16:12:43.832Z,7.23
2019-04-25T16:15:41.450Z,10.93
2019-04-25T16:18:37.865Z,9.23
2019-04-25T16:21:35.920Z,9.87
2019-04-25T16:24:32.276Z,3.97
2019-04-25T16:27:30.379Z,3.97
2019-04-25T16:30:30.890Z,3.80
2019-04-25T16:33:28.989Z,4.33
2019-04-25T16:36:25.534Z,3.67
2019-04-25T16:39:24.027Z,11.27
2019-04-25T16:42:20.710Z,7.50
2019-04-25T16:45:16.814Z,8.80
2019-04-25T16:48:13.130Z,7.37
2019-04-25T16:51:09.808Z,7.83
2019-04-25T16:54:08.120Z,7.30
2019-04-25T16:57:04.395Z,19.47
2019-04-25T17:00:00.944Z,8.43
2019-04-25T17:02:56.957Z,10.63
2019-04-25T17:05:52.621Z,6.27
2019-04-25T17:08:49.222Z,6.70
2019-04-25T17:11:44.756Z,6.10
2019-04-25T17:15:08.635Z,7.37
2019-04-25T17:18:14.523Z,8.47
2019-04-25T17:21:11.858Z,8.73
2019-04-25T17:24:08.188Z,13.03
2019-04-25T17:27:03.710Z,7.07
2019-04-25T17:30:01.695Z,8.30
2019-04-25T17:33:37.771Z,7.37
2019-04-25T17:36:43.918Z,6.23
2019-04-25T17:39:40.539Z,6.50
2019-04-25T17:42:36.974Z,7.63
2019-04-25T17:45:34.587Z,6.97
2019-04-25T17:48:31.880Z,11.93
2019-04-25T17:51:30.152Z,6.67
2019-04-25T17:54:25.690Z,7.70
2019-04-25T17:57:21.681Z,6.23
2019-04-25T18:00:26.605Z,8.30
2019-04-25T18:03:22.722Z,12.73
2019-04-25T18:06:18.853Z,8.20
2019-04-25T18:09:15.291Z,11.97
2019-04-25T18:12:11.819Z,11.70
2019-04-25T18:15:10.563Z,8.70
2019-04-25T18:18:10.276Z,8.07
2019-04-25T18:21:05.880Z,7.30
2019-04-25T18:24:32.463Z,7.23
2019-04-25T18:27:59.920Z,11.37
2019-04-25T18:30:55.716Z,6.20
2019-04-25T18:33:55.036Z,8.47
2019-04-25T18:37:06.579Z,13.13
2019-04-25T18:40:08.829Z,9.37
2019-04-25T18:43:30.432Z,11.10
2019-04-25T18:46:30.890Z,8.60
2019-04-25T18:49:30.565Z,12.77
2019-04-25T18:52:57.640Z,15.17
2019-04-25T18:56:24.288Z,14.90
2019-04-25T18:59:42.727Z,12.83
2019-04-25T19:02:56.106Z,10.23
2019-04-25T19:06:01.178Z,12.33
2019-04-25T19:08:57.549Z,14.67
2019-04-25T19:11:53.569Z,16.27
2019-04-25T19:14:51.736Z,13.93
2019-04-25T19:17:47.401Z,15.73
2019-04-25T19:20:46.090Z,10.70
2019-04-25T19:23:42.077Z,13.93
2019-04-25T19:26:40.683Z,13.37
2019-04-25T19:29:36.242Z,12.53
2019-04-25T19:32:32.070Z,15.53
2019-04-25T19:35:32.354Z,14.63
2019-04-25T19:38:28.397Z,14.97
2019-04-25T19:41:36.416Z,15.23
2019-04-25T19:44:32.805Z,14.93
2019-04-25T19:47:31.690Z,11.53
2019-04-25T19:50:27.628Z,12.23
2019-04-25T19:53:24.017Z,11.77
2019-04-25T19:56:19.601Z,15.53
2019-04-25T19:59:16.309Z,16.60
2019-04-25T20:02:25.665Z,14.10
2019-04-25T20:05:28.903Z,12.73
2019-04-25T20:08:34.091Z,17.30
2019-04-25T20:11:39.666Z,16.17
2019-04-25T20:14:36.386Z,16.00
2019-04-25T20:17:33.044Z,18.00
2019-04-25T20:20:28.478Z,16.90
2019-04-25T20:23:24.794Z,16.23
2019-04-25T20:26:23.152Z,17.40
2019-04-25T20:29:19.251Z,17.83
2019-04-25T20:32:15.667Z,19.03
2019-04-25T20:35:15.267Z,20.50
2019-04-25T20:38:12.468Z,16.23
2019-04-25T20:41:09.331Z,19.97
2019-04-25T20:44:06.184Z,18.80
2019-04-25T20:47:02.220Z,21.77
2019-04-25T20:49:57.970Z,18.53
2019-04-25T20:52:54.946Z,17.03
2019-04-25T20:55:50.890Z,16.80
2019-04-25T20:58:47.869Z,18.20
2019-04-25T21:01:45.598Z,14.33
2019-04-25T21:04:42.800Z,17.20
2019-04-25T21:07:38.608Z,15.63
2019-04-25T21:10:35.455Z,18.13
2019-04-25T21:13:40.108Z,16.73
2019-04-25T21:16:53.833Z,14.83
2019-04-25T21:19:52.713Z,15.40
2019-04-25T21:22:50.424Z,13.33
2019-04-25T21:25:46.720Z,15.83
2019-04-25T21:28:42.029Z,11.70
2019-04-25T21:31:39.478Z,12.03
2019-04-25T21:34:35.740Z,18.33
2019-04-25T21:37:31.433Z,11.00
2019-04-25T21:40:45.105Z,14.67
2019-04-25T21:43:45.456Z,14.83
2019-04-25T21:46:42.281Z,13.97
2019-04-25T21:49:38.502Z,12.53
2019-04-25T21:52:34.533Z,10.70
2019-04-25T21:55:30.102Z,15.03
2019-04-25T21:58:26.141Z,13.80
2019-04-25T22:01:25.637Z,15.77
2019-04-25T22:04:20.894Z,13.57
2019-04-25T22:07:17.811Z,11.67
2019-04-25T22:10:14.826Z,14.67
2019-04-25T22:13:16.687Z,9.40
2019-04-25T22:16:08.523Z,12.80
2019-04-25T22:19:05.019Z,11.13
2019-04-25T22:22:02.717Z,10.43
2019-04-25T22:24:59.140Z,13.20
2019-04-25T22:27:55.114Z,14.43
2019-04-25T22:30:57.707Z,10.47
2019-04-25T22:34:17.109Z,10.47
2019-04-25T22:37:13.222Z,11.90
2019-04-25T22:40:10.114Z,9.87
2019-04-25T22:43:07.802Z,11.00
2019-04-25T22:46:04.475Z,11.27
2019-04-25T22:49:01.353Z,10.97
2019-04-25T22:51:57.255Z,14.70
2019-04-25T22:54:52.617Z,9.10
2019-04-25T22:57:48.900Z,7.57
2019-04-25T23:00:45.575Z,10.90
2019-04-25T23:03:44.701Z,9.93
2019-04-25T23:06:40.566Z,8.13
2019-04-25T23:09:37.877Z,11.77
2019-04-25T23:12:33.826Z,14.13
2019-04-25T23:15:29.075Z,12.47
2019-04-25T23:18:25.518Z,9.53
2019-04-25T23:21:21.410Z,8.13
2019-04-25T23:24:19.370Z,8.33
2019-04-25T23:27:24.301Z,13.20
2019-04-25T23:30:21.926Z,14.13
2019-04-25T23:33:17.487Z,11.10
2019-04-25T23:36:13.955Z,11.70
2019-04-25T23:39:11.237Z,10.20
2019-04-25T23:42:07.296Z,10.30
2019-04-25T23:45:03.845Z,12.43
2019-04-25T23:47:59.761Z,14.17
2019-04-25T23:50:56.284Z,10.07
2019-04-25T23:53:52.855Z,11.87
2019-04-25T23:56:48.802Z,8.13
2019-04-25T23:59:45.310Z,8.10
